Time;durP1;ratioP1;P1;durP2;ratioP2;P2;SDS_P1;SDS_P2;PMS_P1;PMS_P2;Temp;Humidity;BMP_temperature;BMP_pressure;BME280_temperature;BME280_humidity;BME280_pressure;Samples;Min_cycle;Max_cycle;Signal;HPM_P1;HPM_P2
2023/09/25 00:02:36;;;;;;;3.70;2.45;;;11.00;99.90;;;;;;2603206;54;21271;31
2023/09/25 00:05:10;;;;;;;4.10;2.60;;;11.00;99.90;;;;;;2603232;54;20778;31
2023/09/25 00:07:48;;;;;;;3.30;2.53;;;11.00;99.90;;;;;;2603098;54;20344;31
2023/09/25 00:10:25;;;;;;;6.60;2.72;;;11.00;99.90;;;;;;2603376;54;20026;31
2023/09/25 00:13:01;;;;;;;4.32;2.58;;;11.00;99.90;;;;;;2616994;46;20048;31
2023/09/25 00:15:46;;;;;;;4.25;2.70;;;11.10;99.90;;;;;;2602392;54;19930;31
2023/09/25 00:18:23;;;;;;;3.15;2.35;;;11.10;99.90;;;;;;2603387;54;20935;31
2023/09/25 00:20:59;;;;;;;3.97;3.00;;;11.10;99.90;;;;;;2603027;54;20843;31
2023/09/25 00:23:39;;;;;;;4.53;2.70;;;11.10;99.90;;;;;;2602530;54;20053;31
2023/09/25 00:26:15;;;;;;;4.90;2.92;;;11.20;99.90;;;;;;2603299;54;20721;31
2023/09/25 00:28:55;;;;;;;3.50;2.50;;;11.20;99.90;;;;;;2603235;54;20076;31
2023/09/25 00:31:31;;;;;;;2.97;2.10;;;11.20;99.90;;;;;;2603672;54;20030;31
2023/09/25 00:34:14;;;;;;;4.60;2.57;;;11.30;99.90;;;;;;2620900;46;20053;31
2023/09/25 00:36:51;;;;;;;3.97;2.27;;;11.30;99.90;;;;;;2603019;54;20316;31
2023/09/25 00:39:29;;;;;;;2.90;2.37;;;11.30;99.90;;;;;;2602993;54;20022;31
2023/09/25 00:42:05;;;;;;;5.60;3.00;;;11.40;99.90;;;;;;2708150;39;21564;31
2023/09/25 00:44:41;;;;;;;5.00;2.65;;;11.40;99.90;;;;;;2603091;54;20910;31
2023/09/25 00:47:17;;;;;;;3.28;2.35;;;11.50;99.90;;;;;;2603062;54;20031;31
2023/09/25 00:50:00;;;;;;;4.28;2.70;;;11.50;99.90;;;;;;2621483;47;20034;31
2023/09/25 00:52:40;;;;;;;5.00;2.58;;;11.60;99.90;;;;;;2603199;54;20855;31
2023/09/25 00:55:19;;;;;;;3.78;2.67;;;11.60;99.90;;;;;;2603163;54;20022;31
2023/09/25 00:57:58;;;;;;;3.95;3.08;;;11.70;99.90;;;;;;2602276;54;20038;31
2023/09/25 01:00:37;;;;;;;3.25;1.98;;;11.70;99.90;;;;;;2602399;54;20018;31
2023/09/25 01:03:14;;;;;;;2.72;1.65;;;11.70;99.90;;;;;;2603004;54;20085;31
2023/09/25 01:05:55;;;;;;;3.70;2.37;;;11.70;99.90;;;;;;2613535;47;20022;31
2023/09/25 01:08:32;;;;;;;3.42;2.10;;;11.70;99.90;;;;;;2602957;54;20009;31
2023/09/25 01:11:08;;;;;;;4.75;2.55;;;11.70;99.90;;;;;;2621598;47;20027;31
2023/09/25 01:13:44;;;;;;;2.80;1.73;;;11.80;99.90;;;;;;2602847;54;20026;31
2023/09/25 01:16:21;;;;;;;3.90;2.53;;;11.80;99.90;;;;;;2603002;54;20085;31
2023/09/25 01:19:02;;;;;;;3.53;2.08;;;11.80;99.90;;;;;;2621152;47;20042;31
2023/09/25 01:21:49;;;;;;;3.92;2.55;;;11.80;99.90;;;;;;2602628;54;20894;31
2023/09/25 01:24:25;;;;;;;4.05;2.65;;;11.80;99.90;;;;;;2603000;54;20034;31
2023/09/25 01:27:02;;;;;;;2.90;2.37;;;11.90;99.90;;;;;;2603011;54;20740;31
2023/09/25 01:29:39;;;;;;;3.10;2.38;;;11.90;99.90;;;;;;2615922;46;21547;31
2023/09/25 01:32:16;;;;;;;3.85;2.60;;;11.90;99.90;;;;;;2601987;54;20945;31
2023/09/25 01:37:44;;;;;;;3.28;2.38;;;11.90;99.90;;;;;;2602986;54;20002;31
2023/09/25 01:40:24;;;;;;;5.97;2.73;;;11.90;99.90;;;;;;2602024;54;20035;31
2023/09/25 01:43:05;;;;;;;5.00;2.70;;;12.00;99.90;;;;;;2601917;54;19934;31
2023/09/25 01:45:43;;;;;;;3.90;2.55;;;12.00;99.90;;;;;;2621362;47;20034;31
2023/09/25 01:48:21;;;;;;;4.50;2.78;;;12.10;99.90;;;;;;2602850;54;20022;31
2023/09/25 01:51:01;;;;;;;5.70;3.40;;;12.10;99.90;;;;;;2622111;46;20842;31
2023/09/25 01:53:45;;;;;;;4.57;3.08;;;12.10;99.90;;;;;;2603698;54;20885;31
2023/09/25 01:56:21;;;;;;;4.20;1.80;;;12.20;99.90;;;;;;2603638;54;20851;31
2023/09/25 01:58:58;;;;;;;4.15;2.53;;;12.20;99.90;;;;;;2602968;54;20086;31
2023/09/25 02:01:36;;;;;;;3.53;2.47;;;12.20;99.90;;;;;;2602932;54;20942;31
2023/09/25 02:04:11;;;;;;;4.67;2.47;;;12.20;99.90;;;;;;2619515;46;20813;31
2023/09/25 02:06:49;;;;;;;;;;;12.30;99.90;;;;;;2603822;54;20022;31
2023/09/25 02:09:30;;;;;;;2.95;2.00;;;12.30;99.90;;;;;;2603982;54;19954;31
2023/09/25 02:12:11;;;;;;;3.25;2.10;;;12.30;99.90;;;;;;2603706;54;20026;31
2023/09/25 02:14:50;;;;;;;6.40;2.97;;;12.40;99.90;;;;;;2611082;46;20878;31
2023/09/25 02:17:29;;;;;;;4.78;2.85;;;12.40;99.90;;;;;;2602731;54;20037;31
2023/09/25 02:20:20;;;;;;;4.90;3.00;;;12.40;99.90;;;;;;2602752;54;20026;31
2023/09/25 02:23:00;;;;;;;3.23;1.93;;;12.50;99.90;;;;;;2603540;54;20061;31
2023/09/25 02:25:41;;;;;;;3.80;3.00;;;12.50;99.90;;;;;;2603408;54;20092;31
2023/09/25 02:28:16;;;;;;;5.25;3.30;;;12.50;99.90;;;;;;2603619;54;20102;31
2023/09/25 02:30:57;;;;;;;3.88;2.60;;;12.50;99.90;;;;;;2603495;54;19934;31
2023/09/25 02:33:39;;;;;;;3.78;2.72;;;12.60;99.90;;;;;;2603004;54;20034;31
2023/09/25 02:36:16;;;;;;;5.43;2.50;;;12.60;99.90;;;;;;2603384;54;20030;31
2023/09/25 02:38:56;;;;;;;4.28;2.88;;;12.60;99.90;;;;;;2603585;54;20022;31
2023/09/25 02:41:37;;;;;;;3.50;2.35;;;12.60;99.90;;;;;;2603460;54;20029;31
2023/09/25 02:44:10;;;;;;;4.18;2.70;;;12.70;99.90;;;;;;2608210;46;22403;31
2023/09/25 02:46:47;;;;;;;3.45;2.75;;;12.70;99.90;;;;;;2602300;54;20834;31
2023/09/25 02:49:26;;;;;;;4.47;2.22;;;12.70;99.90;;;;;;2603468;54;20336;31
2023/09/25 02:52:04;;;;;;;3.78;2.58;;;12.70;99.90;;;;;;2615175;46;20097;31
2023/09/25 02:54:41;;;;;;;4.70;2.28;;;12.70;99.90;;;;;;2603559;54;20026;31
2023/09/25 02:57:24;;;;;;;5.95;2.60;;;12.80;99.90;;;;;;2603345;54;20034;31
2023/09/25 03:00:05;;;;;;;4.03;2.65;;;12.80;99.90;;;;;;2603592;54;20108;31
2023/09/25 03:02:42;;;;;;;3.05;2.20;;;12.80;99.90;;;;;;2603670;54;20038;31
2023/09/25 03:05:19;;;;;;;6.43;2.90;;;12.80;99.90;;;;;;2701190;39;21541;31
2023/09/25 03:07:56;;;;;;;5.80;3.45;;;12.80;99.90;;;;;;2603337;54;20061;31
2023/09/25 03:10:33;;;;;;;;;;;12.80;99.90;;;;;;2603693;54;20034;31
2023/09/25 03:13:14;;;;;;;;;;;12.80;99.90;;;;;;2603578;54;20843;31
2023/09/25 03:15:55;;;;;;;4.00;2.33;;;12.80;99.90;;;;;;2701917;39;21371;31
2023/09/25 03:18:32;;;;;;;2.33;1.85;;;12.80;99.90;;;;;;2605191;46;20061;31
2023/09/25 03:21:11;;;;;;;2.95;2.20;;;12.80;99.90;;;;;;2602912;54;20836;31
2023/09/25 03:23:49;;;;;;;4.47;2.22;;;12.80;99.90;;;;;;2602890;54;20861;31
2023/09/25 03:26:28;;;;;;;4.35;2.78;;;12.70;99.90;;;;;;2603332;54;20026;31
2023/09/25 03:29:09;;;;;;;3.05;2.13;;;12.70;99.90;;;;;;2603341;54;20108;31
2023/09/25 03:31:48;;;;;;;3.22;2.30;;;12.70;99.90;;;;;;2621497;46;20033;31
2023/09/25 03:34:23;;;;;;;3.72;2.45;;;12.70;99.90;;;;;;2603480;54;20022;31
2023/09/25 03:37:00;;;;;;;4.60;2.63;;;12.70;99.90;;;;;;2603433;54;21580;31
2023/09/25 03:39:41;;;;;;;2.97;2.20;;;12.60;99.90;;;;;;2602673;54;20023;31
2023/09/25 03:42:16;;;;;;;3.38;2.30;;;12.60;99.90;;;;;;2603230;54;20030;31
2023/09/25 03:44:55;;;;;;;4.22;2.65;;;12.60;99.90;;;;;;2621597;46;20026;31
2023/09/25 03:47:34;;;;;;;4.43;2.97;;;12.60;99.90;;;;;;2603265;54;20065;31
2023/09/25 03:50:12;;;;;;;5.45;3.53;;;12.50;99.90;;;;;;2603300;54;20037;31
2023/09/25 03:52:49;;;;;;;5.75;2.97;;;12.50;99.90;;;;;;2603052;54;20896;31
2023/09/25 03:55:30;;;;;;;4.60;2.93;;;12.50;99.90;;;;;;2603150;54;21306;31
2023/09/25 03:58:09;;;;;;;4.72;3.38;;;12.50;99.90;;;;;;2603374;54;20249;31
2023/09/25 04:00:52;;;;;;;4.00;2.78;;;12.50;99.90;;;;;;2603270;54;20941;31
2023/09/25 04:03:32;;;;;;;5.40;3.33;;;12.50;99.90;;;;;;2603336;54;21577;31
2023/09/25 04:06:08;;;;;;;5.25;2.95;;;12.50;99.90;;;;;;2603176;54;20109;31
2023/09/25 04:08:43;;;;;;;5.68;3.65;;;12.60;99.90;;;;;;2603177;54;20023;31
2023/09/25 04:11:20;;;;;;;5.80;3.20;;;12.60;99.90;;;;;;2602257;54;20177;31
2023/09/25 04:13:57;;;;;;;6.53;3.63;;;12.60;99.90;;;;;;2621531;46;20892;31
2023/09/25 04:16:42;;;;;;;4.65;3.33;;;12.60;99.90;;;;;;2603334;54;20825;31
2023/09/25 04:19:20;;;;;;;4.50;3.00;;;12.60;99.90;;;;;;2602381;54;20054;31
2023/09/25 04:21:59;;;;;;;6.17;3.40;;;12.60;99.90;;;;;;2603122;54;20088;31
2023/09/25 04:24:36;;;;;;;6.45;3.95;;;12.60;99.90;;;;;;2603040;54;20857;31
2023/09/25 04:27:13;;;;;;;5.38;3.53;;;12.60;99.90;;;;;;2602453;54;20026;31
2023/09/25 04:29:49;;;;;;;5.65;4.00;;;12.60;99.90;;;;;;2603197;54;20521;31
2023/09/25 04:32:27;;;;;;;6.35;4.00;;;12.70;99.90;;;;;;2621619;46;20030;31
2023/09/25 04:35:07;;;;;;;4.55;3.67;;;12.70;99.90;;;;;;2602357;54;20887;31
2023/09/25 04:37:42;;;;;;;5.90;4.00;;;12.70;99.90;;;;;;2603083;54;20042;31
2023/09/25 04:40:32;;;;;;;6.33;4.30;;;12.70;99.90;;;;;;2602831;54;20057;31
2023/09/25 04:43:08;;;;;;;5.43;3.40;;;12.70;99.90;;;;;;2603183;54;20022;31
2023/09/25 04:45:51;;;;;;;6.35;3.95;;;12.70;99.90;;;;;;2607518;47;20919;31
2023/09/25 04:48:40;;;;;;;6.65;3.92;;;12.80;99.90;;;;;;2602962;54;20891;31
2023/09/25 04:51:20;;;;;;;4.47;3.67;;;12.80;99.90;;;;;;2621427;47;20109;31
2023/09/25 04:56:36;;;;;;;3.40;2.27;;;12.80;99.90;;;;;;2603240;54;20104;31
2023/09/25 04:59:13;;;;;;;5.60;3.93;;;12.80;99.90;;;;;;2603239;54;20254;31
2023/09/25 05:01:49;;;;;;;5.37;3.27;;;12.90;99.90;;;;;;2602329;54;19948;31
2023/09/25 05:04:29;;;;;;;4.32;3.03;;;12.90;99.90;;;;;;2602399;54;20096;31
2023/09/25 05:07:07;;;;;;;6.00;3.20;;;12.90;99.90;;;;;;2602912;54;21285;31
2023/09/25 05:09:44;;;;;;;7.60;3.40;;;12.90;99.90;;;;;;2616669;47;20239;31
2023/09/25 05:14:55;;;;;;;10.15;4.45;;;13.00;99.90;;;;;;2603118;54;20088;31
2023/09/25 05:17:32;;;;;;;6.50;3.60;;;13.00;99.90;;;;;;2602876;54;20935;31
2023/09/25 05:20:15;;;;;;;5.25;3.40;;;13.00;99.90;;;;;;2621278;47;20030;31
2023/09/25 05:22:53;;;;;;;5.85;3.65;;;13.10;99.90;;;;;;2620989;47;20844;31
2023/09/25 05:25:30;;;;;;;6.30;3.13;;;13.10;99.90;;;;;;2612882;47;20019;31
2023/09/25 05:28:10;;;;;;;4.30;2.50;;;13.20;99.90;;;;;;2603115;54;20828;31
2023/09/25 05:31:16;;;;;;;4.45;2.50;;;13.20;99.90;;;;;;2603603;54;20033;31
2023/09/25 05:33:54;;;;;;;4.05;2.30;;;13.20;99.90;;;;;;2603555;54;20031;31
2023/09/25 05:36:39;;;;;;;4.00;2.53;;;13.30;99.90;;;;;;2603953;54;20877;31
2023/09/25 05:39:18;;;;;;;8.20;4.07;;;13.40;99.90;;;;;;2603557;54;20036;31
2023/09/25 05:41:54;;;;;;;4.67;3.47;;;13.40;99.90;;;;;;2622518;46;20026;31
2023/09/25 05:44:37;;;;;;;5.15;2.95;;;13.50;99.90;;;;;;2602919;54;20038;31
2023/09/25 05:47:21;;;;;;;3.65;2.25;;;13.50;99.90;;;;;;2603566;54;20042;31
2023/09/25 05:49:59;;;;;;;6.53;3.33;;;13.60;99.90;;;;;;2603799;54;20027;31
2023/09/25 05:52:38;;;;;;;3.92;2.45;;;13.70;99.90;;;;;;2603705;54;20034;31
2023/09/25 05:55:16;;;;;;;5.70;3.60;;;13.70;99.90;;;;;;2603495;54;20794;31
2023/09/25 05:57:55;;;;;;;5.68;3.38;;;13.80;99.90;;;;;;2602958;54;20250;31
2023/09/25 06:00:31;;;;;;;8.55;4.28;;;13.80;99.90;;;;;;2608857;46;20934;31
2023/09/25 06:03:09;;;;;;;9.55;3.88;;;13.90;99.90;;;;;;2603068;54;20888;31
2023/09/25 06:05:51;;;;;;;6.55;3.97;;;13.90;99.90;;;;;;2603163;54;20053;31
2023/09/25 06:08:32;;;;;;;7.80;5.23;;;13.90;99.90;;;;;;2617235;46;20084;31
2023/09/25 06:11:08;;;;;;;6.73;4.17;;;14.00;99.90;;;;;;2603447;54;21253;31
2023/09/25 06:13:44;;;;;;;;;;;14.10;99.90;;;;;;2603828;54;20258;31
2023/09/25 06:16:22;;;;;;;6.53;3.85;;;14.10;99.90;;;;;;2602798;54;20013;31
2023/09/25 06:19:04;;;;;;;5.07;4.03;;;14.20;99.90;;;;;;2602802;54;20034;31
2023/09/25 06:21:45;;;;;;;5.73;3.83;;;14.20;99.90;;;;;;2622404;46;20027;31
2023/09/25 06:24:26;;;;;;;7.35;3.53;;;14.30;99.90;;;;;;2603365;54;20030;31
2023/09/25 06:27:00;;;;;;;5.28;3.55;;;14.40;99.90;;;;;;2603511;54;20934;31
2023/09/25 06:29:38;;;;;;;5.05;3.55;;;14.50;99.90;;;;;;2603301;54;20027;31
2023/09/25 06:32:16;;;;;;;4.72;2.92;;;14.50;99.90;;;;;;2621879;46;20142;31
2023/09/25 06:34:54;;;;;;;8.10;3.85;;;14.70;99.90;;;;;;2603099;54;20756;31
2023/09/25 06:37:35;;;;;;;5.60;3.75;;;14.70;99.90;;;;;;2602947;54;20027;31
2023/09/25 06:40:32;;;;;;;8.32;3.90;;;14.90;99.90;;;;;;2621644;46;20839;31
2023/09/25 06:45:42;;;;;;;6.30;3.63;;;15.30;99.90;;;;;;2622147;46;20026;31
2023/09/25 06:48:21;;;;;;;5.35;3.70;;;15.60;99.90;;;;;;2603388;54;20022;31
2023/09/25 06:50:59;;;;;;;4.63;2.90;;;16.10;99.90;;;;;;2603541;54;20038;31
2023/09/25 06:53:37;;;;;;;4.90;3.20;;;16.70;99.90;;;;;;2603661;54;20092;31
2023/09/25 06:58:54;;;;;;;5.32;3.08;;;17.80;99.90;;;;;;2603397;54;20942;31
2023/09/25 07:01:31;;;;;;;3.95;2.85;;;18.00;99.90;;;;;;2603474;54;20026;31
2023/09/25 07:04:11;;;;;;;4.35;3.15;;;18.10;99.90;;;;;;2603404;54;20038;31
2023/09/25 07:06:49;;;;;;;5.60;3.38;;;18.30;99.90;;;;;;2603454;54;20027;31
2023/09/25 07:09:26;;;;;;;3.28;2.72;;;18.70;99.90;;;;;;2604720;46;20081;31
2023/09/25 07:12:04;;;;;;;4.65;2.92;;;19.10;99.90;;;;;;2603389;54;20042;31
2023/09/25 07:14:42;;;;;;;4.43;3.10;;;19.40;99.90;;;;;;2603309;54;20882;31
2023/09/25 07:17:22;;;;;;;4.77;2.70;;;19.60;99.90;;;;;;2602616;54;20034;31
2023/09/25 07:19:59;;;;;;;4.88;2.65;;;19.80;99.90;;;;;;2603265;54;20305;31
2023/09/25 07:22:36;;;;;;;4.93;2.80;;;20.10;99.90;;;;;;2621837;46;20032;31
2023/09/25 07:25:14;;;;;;;4.72;2.65;;;20.50;99.90;;;;;;2602847;54;20037;31
2023/09/25 07:27:51;;;;;;;5.40;2.60;;;20.90;99.90;;;;;;2621804;46;20027;31
2023/09/25 07:30:32;;;;;;;7.00;2.67;;;21.10;99.90;;;;;;2621827;46;20027;31
2023/09/25 07:33:07;;;;;;;4.35;2.30;;;21.10;99.90;;;;;;2603320;54;20022;31
2023/09/25 07:35:48;;;;;;;2.95;2.10;;;21.10;99.90;;;;;;2622158;46;20048;31
2023/09/25 07:38:26;;;;;;;4.93;2.60;;;21.00;99.90;;;;;;2701007;39;21479;31
2023/09/25 07:41:08;;;;;;;4.60;2.55;;;20.90;99.90;;;;;;2603419;54;20026;31
2023/09/25 07:43:48;;;;;;;4.60;2.67;;;20.90;99.90;;;;;;2604003;46;20037;31
2023/09/25 07:46:44;;;;;;;4.35;2.22;;;20.90;99.90;;;;;;2602123;54;20113;31
2023/09/25 07:49:22;;;;;;;5.03;2.67;;;21.00;99.90;;;;;;2603279;54;20925;31
2023/09/25 07:52:00;;;;;;;4.55;2.58;;;21.00;99.90;;;;;;2603242;54;20027;31
2023/09/25 07:54:41;;;;;;;3.85;2.47;;;21.10;99.90;;;;;;2602951;54;20038;31
2023/09/25 07:57:21;;;;;;;3.43;2.13;;;21.10;99.90;;;;;;2603495;54;20038;31
2023/09/25 07:59:57;;;;;;;5.03;2.60;;;21.20;99.90;;;;;;2603223;54;19935;31
2023/09/25 08:02:47;;;;;;;3.85;2.85;;;21.30;99.90;;;;;;2603294;54;20878;31
2023/09/25 08:05:23;;;;;;;3.70;1.98;;;21.30;99.90;;;;;;2621630;46;20032;31
2023/09/25 08:08:04;;;;;;;3.40;2.40;;;21.60;99.90;;;;;;2603116;54;20891;31
2023/09/25 08:10:41;;;;;;;3.70;2.53;;;21.70;99.90;;;;;;2602414;54;20249;31
2023/09/25 08:13:18;;;;;;;4.45;2.45;;;21.80;99.90;;;;;;2603183;54;20120;31
2023/09/25 08:15:57;;;;;;;3.65;2.25;;;21.90;99.90;;;;;;2603157;54;20060;31
2023/09/25 08:18:37;;;;;;;4.45;2.35;;;22.10;99.90;;;;;;2621774;46;20085;31
2023/09/25 08:21:14;;;;;;;8.07;2.28;;;22.20;99.90;;;;;;2603473;54;20470;31
2023/09/25 08:23:49;;;;;;;6.13;2.70;;;22.40;99.90;;;;;;2603301;54;20030;31
2023/09/25 08:26:31;;;;;;;4.28;2.35;;;22.60;99.90;;;;;;2701774;39;21461;31
2023/09/25 08:29:07;;;;;;;3.85;2.38;;;22.70;99.90;;;;;;2603268;54;20877;31
2023/09/25 08:31:48;;;;;;;4.30;2.85;;;23.10;99.90;;;;;;2621438;46;20989;31
2023/09/25 08:34:33;;;;;;;4.10;2.53;;;23.20;99.90;;;;;;2701050;39;20336;31
2023/09/25 08:37:11;;;;;;;3.67;2.80;;;23.30;99.90;;;;;;2603221;54;20848;31
2023/09/25 08:39:50;;;;;;;4.07;2.73;;;23.30;99.90;;;;;;2621742;46;20038;31
2023/09/25 08:42:31;;;;;;;4.53;3.00;;;23.50;99.90;;;;;;2602864;54;20929;31
2023/09/25 08:45:12;;;;;;;4.70;3.08;;;23.60;99.90;;;;;;2603226;54;20918;31
2023/09/25 08:47:50;;;;;;;2.97;2.20;;;23.60;99.90;;;;;;2621406;47;20030;31
2023/09/25 08:50:32;;;;;;;5.30;2.15;;;23.70;99.90;;;;;;2621101;47;20792;31
2023/09/25 08:53:13;;;;;;;4.15;2.42;;;23.80;99.90;;;;;;2605630;47;20145;31
2023/09/25 08:55:54;;;;;;;3.57;2.30;;;23.90;99.90;;;;;;2602998;54;20101;31
2023/09/25 08:58:31;;;;;;;4.10;2.30;;;23.90;99.90;;;;;;2621885;47;19969;31
2023/09/25 09:01:07;;;;;;;3.05;2.30;;;24.00;99.90;;;;;;2603442;54;20078;31
2023/09/25 09:03:46;;;;;;;3.85;2.50;;;24.00;99.90;;;;;;2603738;54;20041;31
2023/09/25 09:06:31;;;;;;;3.63;2.00;;;24.10;99.90;;;;;;2603726;54;19950;31
2023/09/25 09:11:42;;;;;;;3.28;2.30;;;24.10;99.90;;;;;;2622209;46;20030;31
2023/09/25 09:14:30;;;;;;;3.50;2.00;;;24.20;99.90;;;;;;2603488;54;20093;31
2023/09/25 09:17:06;;;;;;;5.35;2.05;;;24.40;99.90;;;;;;2621323;46;21425;31
2023/09/25 09:19:54;;;;;;;3.97;2.22;;;24.30;99.90;;;;;;2603018;54;20974;31
2023/09/25 09:22:35;;;;;;;2.63;1.90;;;24.30;99.90;;;;;;2603638;54;20781;31
2023/09/25 09:25:15;;;;;;;2.20;1.65;;;24.40;99.90;;;;;;2603664;54;20023;31
2023/09/25 09:27:51;;;;;;;3.67;2.17;;;24.50;99.90;;;;;;2610038;46;20033;31
2023/09/25 09:30:29;;;;;;;2.70;1.50;;;24.40;99.90;;;;;;2603595;54;20037;31
2023/09/25 09:33:20;;;;;;;2.05;1.70;;;24.50;99.90;;;;;;2603765;54;20042;31
2023/09/25 09:35:59;;;;;;;2.65;1.67;;;24.60;99.90;;;;;;2603784;54;20058;31
2023/09/25 09:38:43;;;;;;;3.42;1.40;;;24.60;99.90;;;;;;2603821;54;20895;31
2023/09/25 09:41:20;;;;;;;1.85;1.30;;;24.90;99.90;;;;;;2603087;54;20030;31
2023/09/25 09:44:03;;;;;;;2.75;1.30;;;24.80;99.90;;;;;;2622249;46;20029;31
2023/09/25 09:46:44;;;;;;;2.80;1.40;;;24.90;99.90;;;;;;2621760;46;20882;31
2023/09/25 09:49:23;;;;;;;2.42;1.58;;;24.80;99.90;;;;;;2621764;46;20101;31
2023/09/25 09:51:57;;;;;;;2.63;1.30;;;24.60;99.90;;;;;;2603336;54;20034;31
2023/09/25 09:54:40;;;;;;;1.48;1.20;;;24.50;99.90;;;;;;2603808;54;20046;31
2023/09/25 09:57:24;;;;;;;3.00;1.50;;;24.40;99.90;;;;;;2603542;54;20022;31
2023/09/25 10:00:04;;;;;;;3.58;1.17;;;24.40;99.90;;;;;;2603761;54;20026;31
2023/09/25 10:03:00;;;;;;;2.03;1.10;;;24.40;99.90;;;;;;2603537;54;20026;31
2023/09/25 10:05:46;;;;;;;3.65;1.40;;;24.50;99.90;;;;;;2602771;54;19949;31
2023/09/25 10:08:22;;;;;;;2.65;1.25;;;24.40;99.90;;;;;;2603769;54;20105;31
2023/09/25 10:11:18;;;;;;;3.80;1.13;;;24.40;99.90;;;;;;2621975;46;20029;31
2023/09/25 10:14:03;;;;;;;2.08;1.23;;;24.30;99.90;;;;;;2603890;54;20906;31
2023/09/25 10:16:54;;;;;;;1.63;0.90;;;24.40;99.90;;;;;;2621834;46;21545;31
2023/09/25 10:19:50;;;;;;;2.00;1.05;;;24.30;99.90;;;;;;2621979;46;19950;31
2023/09/25 10:22:30;;;;;;;4.50;1.25;;;24.10;99.90;;;;;;2622200;46;20164;31
2023/09/25 10:25:09;;;;;;;3.00;1.10;;;24.10;99.90;;;;;;2603596;54;20952;31
2023/09/25 10:27:47;;;;;;;2.30;0.97;;;24.00;99.90;;;;;;2603626;54;20023;31
2023/09/25 10:30:28;;;;;;;2.30;0.90;;;24.10;99.90;;;;;;2622099;46;20030;31
2023/09/25 10:33:03;;;;;;;1.58;1.00;;;24.10;99.90;;;;;;2603227;54;20026;31
2023/09/25 10:35:47;;;;;;;1.10;0.75;;;24.00;99.90;;;;;;2603581;54;20768;31
2023/09/25 10:38:28;;;;;;;2.55;1.05;;;23.90;99.90;;;;;;2603428;54;20106;31
2023/09/25 10:41:09;;;;;;;1.50;0.82;;;23.70;99.90;;;;;;2622373;46;20031;31
2023/09/25 10:43:48;;;;;;;2.58;1.15;;;23.60;99.90;;;;;;2606225;46;20041;31
2023/09/25 10:46:31;;;;;;;1.70;0.95;;;23.40;99.90;;;;;;2602617;54;20081;31
2023/09/25 10:49:10;;;;;;;2.00;1.00;;;23.30;99.90;;;;;;2621553;46;20041;31
2023/09/25 10:51:48;;;;;;;1.33;0.90;;;23.20;99.90;;;;;;2603524;54;20882;31
2023/09/25 10:54:29;;;;;;;2.10;0.98;;;23.10;99.90;;;;;;2603448;54;20898;31
2023/09/25 10:57:05;;;;;;;2.45;1.00;;;23.00;99.90;;;;;;2602721;54;20763;31
2023/09/25 10:59:58;;;;;;;2.50;0.95;;;22.80;99.90;;;;;;2603419;54;20758;31
2023/09/25 11:02:42;;;;;;;1.10;0.82;;;22.70;99.90;;;;;;2603423;54;20026;31
2023/09/25 11:05:48;;;;;;;2.22;1.08;;;22.60;99.90;;;;;;2603605;54;20038;31
2023/09/25 11:08:35;;;;;;;2.97;1.10;;;22.60;99.90;;;;;;2603358;54;20034;31
2023/09/25 11:11:23;;;;;;;1.80;1.15;;;22.50;99.90;;;;;;2603489;54;20069;31
2023/09/25 11:14:02;;;;;;;3.25;1.05;;;22.40;99.90;;;;;;2603382;54;20892;31
2023/09/25 11:16:39;;;;;;;2.90;1.20;;;22.40;99.90;;;;;;2603557;54;20847;31
2023/09/25 11:19:18;;;;;;;2.63;1.02;;;22.30;99.90;;;;;;2621827;46;20036;31
2023/09/25 11:21:55;;;;;;;2.83;0.88;;;22.20;99.90;;;;;;2603267;54;20733;31
2023/09/25 11:24:34;;;;;;;3.37;1.07;;;22.10;99.90;;;;;;2622024;46;20022;31
2023/09/25 11:27:19;;;;;;;2.60;1.20;;;22.00;99.90;;;;;;2612522;46;20052;31
2023/09/25 11:30:15;;;;;;;1.77;1.40;;;21.90;99.90;;;;;;2603238;54;20123;31
2023/09/25 11:32:52;;;;;;;4.20;0.88;;;21.90;99.90;;;;;;2603343;54;20029;31
2023/09/25 11:35:34;;;;;;;2.45;0.90;;;21.90;99.90;;;;;;2603543;54;20905;31
2023/09/25 11:38:21;;;;;;;2.05;0.80;;;21.90;99.90;;;;;;2604475;46;20253;31
2023/09/25 11:41:00;;;;;;;2.05;1.00;;;21.90;99.90;;;;;;2603549;54;20074;31
2023/09/25 11:43:37;;;;;;;1.33;1.10;;;21.90;99.90;;;;;;2603461;54;20035;31
2023/09/25 11:46:15;;;;;;;3.30;1.05;;;21.90;99.90;;;;;;2602458;54;20093;31
2023/09/25 11:48:52;;;;;;;2.40;1.15;;;21.90;99.90;;;;;;2621932;46;20031;31
2023/09/25 11:51:33;;;;;;;3.03;1.25;;;22.00;99.90;;;;;;2603321;54;20838;31
2023/09/25 11:54:11;;;;;;;2.13;1.13;;;21.90;99.90;;;;;;2603355;54;20089;31
2023/09/25 11:56:46;;;;;;;2.38;1.08;;;21.90;99.90;;;;;;2621218;46;20864;31
2023/09/25 11:59:30;;;;;;;3.95;1.63;;;21.90;99.90;;;;;;2603347;54;20027;31
2023/09/25 12:02:08;;;;;;;3.33;1.43;;;21.90;99.90;;;;;;2603425;54;20023;31
2023/09/25 12:04:43;;;;;;;2.75;1.33;;;21.80;99.90;;;;;;2603220;54;20033;31
2023/09/25 12:07:25;;;;;;;2.53;1.20;;;21.80;99.90;;;;;;2603491;54;20030;31
2023/09/25 12:10:03;;;;;;;1.40;0.90;;;21.90;99.90;;;;;;2603186;54;20775;31
2023/09/25 12:12:41;;;;;;;2.50;1.10;;;21.90;99.90;;;;;;2603471;54;20026;31
2023/09/25 12:15:24;;;;;;;1.90;1.20;;;21.90;99.90;;;;;;2702111;39;20424;31
2023/09/25 12:18:00;;;;;;;2.17;1.10;;;21.90;99.90;;;;;;2603224;54;20074;31
2023/09/25 12:20:41;;;;;;;3.40;0.80;;;22.00;99.90;;;;;;2621673;46;20019;31
2023/09/25 12:23:22;;;;;;;4.03;0.65;;;22.00;99.90;;;;;;2603371;54;20037;31
2023/09/25 12:25:59;;;;;;;5.10;0.95;;;22.00;99.90;;;;;;2621415;46;19941;31
2023/09/25 12:28:47;;;;;;;2.73;0.80;;;21.90;99.90;;;;;;2603214;54;20038;31
2023/09/25 12:31:26;;;;;;;1.30;0.50;;;21.90;99.90;;;;;;2603201;54;20034;31
2023/09/25 12:34:02;;;;;;;1.92;0.80;;;22.00;99.90;;;;;;2602795;54;20771;31
2023/09/25 12:36:38;;;;;;;;;;;22.00;99.90;;;;;;2603069;54;20669;31
2023/09/25 12:39:37;;;;;;;3.93;0.60;;;22.00;99.90;;;;;;2621418;46;19941;31
2023/09/25 12:42:16;;;;;;;3.45;0.80;;;22.00;99.90;;;;;;2603298;54;20026;31
2023/09/25 12:44:55;;;;;;;1.20;0.70;;;21.90;99.90;;;;;;2603205;54;20851;31
2023/09/25 12:47:38;;;;;;;3.60;0.60;;;21.90;99.90;;;;;;2701709;39;21441;31
2023/09/25 12:50:29;;;;;;;1.50;0.73;;;21.90;99.90;;;;;;2603124;54;21527;31
2023/09/25 12:53:10;;;;;;;2.25;0.77;;;21.90;99.90;;;;;;2603230;54;20033;31
2023/09/25 12:56:06;;;;;;;1.58;0.65;;;21.90;99.90;;;;;;2602990;54;19993;31
2023/09/25 13:04:37;;;;;;;1.00;0.50;;;21.90;99.90;;;;;;2602943;54;19935;31
2023/09/25 13:07:15;;;;;;;1.88;0.95;;;21.90;99.90;;;;;;2603225;54;19939;31
2023/09/25 13:09:56;;;;;;;2.35;0.75;;;21.90;99.90;;;;;;2603031;54;20038;31
2023/09/25 13:12:36;;;;;;;2.40;0.88;;;21.80;99.90;;;;;;2701439;39;21466;31
2023/09/25 13:15:19;;;;;;;3.05;0.70;;;21.80;99.90;;;;;;2602933;54;20531;31
2023/09/25 13:17:59;;;;;;;2.72;0.70;;;21.90;99.90;;;;;;2603039;54;20026;31
2023/09/25 13:20:36;;;;;;;1.55;0.68;;;21.80;99.90;;;;;;2621648;47;20105;31
2023/09/25 13:23:17;;;;;;;1.80;0.80;;;21.90;99.90;;;;;;2602084;54;20022;31
2023/09/25 13:26:01;;;;;;;1.95;0.88;;;22.00;99.90;;;;;;2602371;54;25037;31
2023/09/25 13:28:47;;;;;;;1.35;0.90;;;22.00;99.90;;;;;;2602847;54;20125;31
2023/09/25 13:31:23;;;;;;;2.00;0.85;;;22.00;99.90;;;;;;2603036;54;19934;31
2023/09/25 13:34:02;;;;;;;0.85;0.60;;;22.00;99.90;;;;;;2603010;54;20038;31
2023/09/25 13:36:40;;;;;;;1.90;0.98;;;22.00;99.90;;;;;;2602879;54;20776;31
2023/09/25 13:39:18;;;;;;;2.33;1.08;;;21.90;99.90;;;;;;2602921;54;20800;31
2023/09/25 13:41:59;;;;;;;1.92;0.80;;;21.90;99.90;;;;;;2617913;47;20029;31
2023/09/25 13:44:49;;;;;;;2.35;1.05;;;21.80;99.90;;;;;;2602814;54;20026;31
2023/09/25 13:47:28;;;;;;;1.38;0.88;;;21.80;99.90;;;;;;2603598;54;20080;31
2023/09/25 13:50:25;;;;;;;2.60;1.17;;;21.70;99.90;;;;;;2603813;54;20875;31
2023/09/25 13:53:00;;;;;;;1.90;1.17;;;21.60;99.90;;;;;;2603556;54;20365;31
2023/09/25 13:58:32;;;;;;;3.58;1.08;;;21.50;99.90;;;;;;2621761;46;20022;31
2023/09/25 14:03:46;;;;;;;3.45;1.00;;;21.40;99.90;;;;;;2603634;54;20027;31
2023/09/25 14:06:20;;;;;;;1.75;0.90;;;21.40;99.90;;;;;;2603272;54;21352;31
2023/09/25 14:09:21;;;;;;;2.45;1.35;;;21.40;99.90;;;;;;2602774;54;20031;31
2023/09/25 14:12:10;;;;;;;3.80;1.10;;;21.30;99.90;;;;;;2603461;54;20862;31
2023/09/25 14:14:51;;;;;;;3.08;1.40;;;21.30;99.90;;;;;;2603774;54;20889;31
2023/09/25 14:17:28;;;;;;;2.20;1.60;;;21.30;99.90;;;;;;2607503;46;20880;31
2023/09/25 14:20:21;;;;;;;2.72;1.30;;;21.20;99.90;;;;;;2603546;54;20105;31
2023/09/25 14:23:02;;;;;;;3.95;2.05;;;21.20;99.90;;;;;;2603700;54;20026;31
2023/09/25 14:25:55;;;;;;;2.92;2.00;;;21.10;99.90;;;;;;2603472;54;20038;31
2023/09/25 14:28:31;;;;;;;2.60;1.50;;;21.10;99.90;;;;;;2603583;54;20030;31
2023/09/25 14:31:11;;;;;;;3.42;1.55;;;21.10;99.90;;;;;;2603839;54;20022;31
2023/09/25 14:33:52;;;;;;;3.00;1.77;;;21.00;99.90;;;;;;2622081;46;20037;31